Weather observations for the past three days for
Easton Airport
Imperial (Metric)
Date Time (edt) Wind (mph) Vis. (mi.) Weather Sky Cond. Temperature (ºF) Relative Humidity Wind Chill (°F) Heat Index (°F) Pressure Precipitation (in)
Air Dwpt 6 hour altimeter (in) sea level (mb) 1 hr 3 hr 6 hr
Max. Min.
04 20:45 S 10 10.00 Fair CLR 66.2 44.6 46% 29.86 0.0
04 19:45 S 14 G 21 10.00 Fair CLR 69.8 42.8 38% 29.85 0.0
04 18:50 S 14 10.00 Fair CLR 73.4 41 31% 29.85 0.0
04 17:45 S 16 10.00 Fair CLR 73.4 42.8 33% 29.85 0.0
04 16:45 S 16 10.00 Fair CLR 77 39.2 26% 77 29.85 0.0
04 15:45 SW 13 G 20 10.00 Fair CLR 75.2 37.4 25% 77 29.88 0.0
04 14:45 SW 13 10.00 Fair CLR 73.4 35.6 25% 29.9 0.0
04 13:45 SW 15 10.00 Fair CLR 71.6 33.8 25% 29.92 0.0
04 12:45 S 10 10.00 Fair CLR 69.8 35.6 29% 29.94 0.0
04 11:45 W 8 10.00 Fair CLR 68 39.2 35% 29.96 0.0
04 10:45 S 9 10.00 Fair CLR 64.4 41 43% 29.97 0.0
04 09:45 SW 13 G 18 10.00 Fair CLR 62.6 39.2 42% 29.97 0.0
04 08:45 SW 16 10.00 Partly Cloudy SCT100 60.8 39.2 45% 29.99 0.0
04 07:45 S 7 10.00 A Few Clouds FEW100 57.2 42.8 59% 30 0.0
04 06:45 S 5 10.00 Mostly Cloudy BKN110 53.6 44.6 72% 30.01 0.0
04 05:55 S 7 9.00 Mostly Cloudy BKN110 54.3 44.6 70% 30 0.0
04 05:50 S 6 10.00 Overcast OVC110 53.6 42.8 67% 30 0.0
04 05:35 S 7 10.00 Overcast OVC110 54.3 44.8 70% 30 0.0
04 05:15 S 8 10.00 Overcast OVC120 54.1 45.1 72% 30 0.0
04 04:55 S 8 10.00 Overcast OVC120 54.1 45.7 73% 30 0.0
04 04:35 S 8 10.00 Mostly Cloudy BKN120 53.8 46 75% 30 0.0
04 04:15 S 8 10.00 Mostly Cloudy BKN120 53.6 46 76% 30 0.0
04 03:55 S 8 10.00 Partly Cloudy SCT130 53.2 45 74% 30.01 0.0
04 03:35 S 9 10.00 Fair CLR 52.9 43.9 72% 30.01 0.0
04 03:15 S 8 10.00 Fair CLR 52.7 42.6 69% 30.01 0.0
04 02:55 S 9 10.00 Partly Cloudy SCT130 53.2 42.6 67% 30.01 0.0
04 02:35 S 8 10.00 Mostly Cloudy BKN130 52.5 42.8 70% 30.01 0.0
04 02:15 S 7 10.00 A Few Clouds FEW150 49.8 41.7 74% 47 30.02 0.0
04 01:55 S 6 10.00 Partly Cloudy SCT170 49.3 40.1 57.2 47.5 71% 47 30.01 0.0
04 01:35 S 6 10.00 Mostly Cloudy BKN170 48 39.4 72% 46 30.01 0.0
04 01:15 S 7 10.00 Mostly Cloudy BKN180 48.9 38.3 67% 46 30.01 0.0
04 00:55 S 3 10.00 Fair CLR 48.6 36.3 63% 30.01 0.0
04 00:35 S 3 10.00 Fair CLR 48.6 35.8 61% 30.01 0.0
04 00:15 Calm 10.00 Fair CLR 48.6 35.2 60% 30.01 0.0
03 23:55 S 3 10.00 Fair CLR 48.6 35.6 61% 30 0.0
03 23:35 S 3 10.00 Fair CLR 49.1 35.2 59% 30 0.0
03 23:15 S 3 10.00 Fair CLR 48.4 35.2 61% 30 0.0
03 22:55 S 3 10.00 Fair CLR 49.5 34.5 57% 30 0.0
03 22:35 S 5 10.00 Fair CLR 49.3 34.3 57% 48 30 0.0
03 22:15 Calm 10.00 Fair CLR 49.5 33.3 54% 30 0.0
03 21:45 Calm 10.00 Fair CLR 51.8 32 47% 29.99 0.0
03 20:45 Calm 10.00 Fair CLR 55.4 28.4 36% 29.97 0.0
03 19:45 W 6 10.00 Fair CLR 57.2 26.6 31% 29.96 0.0
03 18:45 W 7 10.00 Fair CLR 60.8 26.6 27% 29.96 0.0
03 17:45 W 9 10.00 Fair CLR 60.8 26.6 27% 29.96 0.0
03 16:45 NW 14 G 20 10.00 Fair CLR 60.8 26.6 27% 29.96 0.0
03 15:45 W 10 G 29 10.00 Fair CLR 59 26.6 29% 29.98 0.0
03 14:45 NW 17 G 22 10.00 Fair CLR 59 24.8 27% 29.99 0.0
03 13:45 W 15 G 21 10.00 A Few Clouds FEW070 57.2 24.8 29% 30 0.0
03 12:45 W 9 G 20 10.00 A Few Clouds FEW065 55.4 24.8 31% 30.01 0.0
03 11:45 NW 18 G 26 10.00 Fair CLR 55.4 24.8 31% 30.02 0.0
03 10:45 NW 17 G 23 10.00 Fair CLR 51.8 26.6 38% 30.02 0.0
03 09:45 NW 18 G 23 10.00 Fair CLR 50 28.4 43% 44 30.02 0.0
03 08:50 NW 24 G 37 10.00 Fair and Breezy CLR 48.2 24.8 40% 41 30.01 0.0
03 06:50 NW 17 G 26 10.00 Fair CLR 44.6 28.4 53% 38 29.97 0.0
03 05:55 NW 15 G 21 9.00 Fair CLR 44.2 31.6 61% 38 29.94 0.0
03 05:50 NW 16 G 25 10.00 Fair CLR 44.6 28.4 53% 38 29.94 0.0
03 05:35 NW 12 10.00 Fair CLR 44.6 32 61% 39 29.94 0.0
03 05:15 NW 13 10.00 Fair CLR 44.6 32.9 64% 39 29.94 0.0
03 04:55 NW 10 10.00 Fair CLR 45 33.1 63% 40 29.93 0.0
03 04:35 NW 13 10.00 Fair CLR 45.5 33.3 62% 40 29.93 0.0
03 04:15 NW 10 10.00 Fair CLR 45.7 33.8 63% 41 29.92 0.0
03 03:55 NW 12 10.00 Fair CLR 46.4 33.3 60% 42 29.92 0.0
03 03:35 NW 10 9.00 Fair CLR 46 33.1 61% 42 29.91 0.0
03 03:15 NW 10 10.00 Fair CLR 46.4 33.1 60% 42 29.91 0.0
03 02:55 NW 10 10.00 Fair CLR 47.7 32.4 56% 44 29.9 0.0
03 02:35 NW 8 10.00 Fair CLR 45.9 32.9 61% 42 29.9 0.0
03 02:15 NW 8 10.00 Fair CLR 47.5 32.2 55% 44 29.9 0.0
03 01:55 NW 7 10.00 Fair CLR 49.1 31.6 56.5 48.9 51% 47 29.91 0.0
03 01:35 NW 9 10.00 Fair CLR 49.3 32.5 53% 46 29.91 0.0
03 01:15 NW 6 10.00 Fair CLR 49.8 33.8 54% 48 29.91 0.0
03 00:55 NW 9 10.00 Fair CLR 50.5 33.4 52% 29.91 0.0
03 00:35 NW 7 10.00 Fair CLR 51.3 32.5 49% 29.91 0.0
03 00:15 NW 13 10.00 Fair CLR 52.3 32.4 47% 29.91 0.0
02 23:55 N 12 G 20 10.00 Fair CLR 53.4 31.6 44% 29.91 0.0
02 23:35 N 9 10.00 Fair CLR 53.4 31.5 43% 29.9 0.0
02 23:15 N 6 10.00 Fair CLR 53.4 31.5 43% 29.9 0.0
02 22:55 N 6 10.00 Fair CLR 53.8 31.6 43% 29.9 0.0
02 22:35 N 7 10.00 Fair CLR 54.1 31.5 42% 29.9 0.0
02 22:15 N 7 10.00 Fair CLR 54.1 31.8 43% 29.9 0.0
02 21:45 N 6 10.00 A Few Clouds FEW075 55.4 32 41% 29.9 0.0
02 20:45 NW 5 10.00 Partly Cloudy SCT070 55.4 33.8 44% 29.89 0.0
02 19:45 N 5 9.00 A Few Clouds FEW080 57.2 30.2 36% 29.87 0.0
02 18:45 N 9 9.00 Fair CLR 59 30.2 34% 29.87 0.0
02 17:45 N 10 10.00 Partly Cloudy SCT170 59 30.2 34% 29.86 0.0
02 16:45 NW 8 10.00 Mostly Cloudy BKN170 59 30.2 34% 29.86 0.0
02 15:45 NW 12 G 18 10.00 Mostly Cloudy BKN180 59 32 36% 29.87 0.0
02 14:45 NW 12 10.00 A Few Clouds FEW190 60.8 30.2 31% 29.89 0.0
02 12:45 NW 12 10.00 Mostly Cloudy BKN170 55.4 32 41% 29.93 0.0
02 11:45 N 10 10.00 A Few Clouds FEW170 55.4 33.8 44% 29.95 0.0
02 10:45 N 12 10.00 Mostly Cloudy BKN190 53.6 37.4 54% 29.93 0.0
02 09:45 N 9 10.00 A Few Clouds FEW380 53.6 39.2 58% 29.93 0.0
02 08:45 N 8 10.00 Fair CLR 51.8 39.2 62% 29.94 0.0
02 07:45 N 13 10.00 Fair CLR 51.8 37.4 58% 29.94 0.0
02 06:45 NW 9 10.00 Fair CLR 50 42.8 76% 47 29.92 0.0
02 05:55 Calm 10.00 Fair CLR 48.2 46.4 94% 29.91 0.0
02 05:35 Calm 10.00 Fair CLR 48 45.5 91% 29.9 0.0
02 05:15 Calm 10.00 Fair CLR 48.7 46 90% 29.9 0.0
02 04:55 Calm 10.00 Fair CLR 48.7 46 90% 29.9 0.0
02 04:35 Calm 10.00 A Few Clouds FEW120 48.6 45.9 90% 29.89 0.0
02 04:15 NE 3 10.00 Partly Cloudy SCT120 49.5 45.9 87% 29.89 0.0
02 03:55 N 3 10.00 Mostly Cloudy BKN110 50.2 46.2 86% 29.89 0.0
02 03:15 Calm 10.00 Mostly Cloudy SCT055 BKN110 50.7 45.7 83% 29.88 0.0
02 02:55 Calm 10.00 Mostly Cloudy SCT055 BKN110 51.3 46 82% 29.89 0.0
02 02:35 Calm 10.00 Partly Cloudy SCT110 50.9 45.7 82% 29.89 0.0
02 02:15 S 5 10.00 A Few Clouds FEW060 51.1 45.3 81% 29.9 0.0
02 01:55 S 5 10.00 A Few Clouds FEW060 52.3 45.3 58.8 52.2 77% 29.9 0.0
02 01:35 S 6 10.00 Fair CLR 52.3 45 76% 29.91 0.0
02 01:15 S 7 10.00 A Few Clouds FEW100 52.7 44.6 74% 29.9 0.0
02 00:55 S 9 10.00 Fair CLR 53.1 44.2 72% 29.9 0.0
02 00:35 S 8 10.00 A Few Clouds FEW100 53.2 44.4 72% 29.9 0.0
02 00:15 S 9 10.00 Partly Cloudy SCT100 SCT130 53.6 44.4 71% 29.9 0.0
01 23:55 S 8 10.00 Mostly Cloudy BKN120 53.8 44.4 71% 29.9 0.0
01 23:35 S 7 10.00 Mostly Cloudy BKN120 53.8 44.6 71% 29.9 0.0
01 23:15 S 7 10.00 Mostly Cloudy BKN130 53.8 45.5 74% 29.89 0.0
01 22:55 S 7 10.00 A Few Clouds FEW130 53.4 45 73% 29.89 0.0
01 22:35 S 9 10.00 Partly Cloudy SCT130 54.5 44.6 69% 29.9 0.0
01 22:15 S 9 10.00 Partly Cloudy SCT130 54.9 43.5 66% 29.9 0.0
01 21:45 SE 9 10.00 A Few Clouds FEW120 55.4 41 59% 29.89 0.0
Date Time (edt) Wind (mph) Vis. (mi.) Weather Sky Cond. Air Dwpt Max. Min. Relative Humidity Wind Chill (°F) Heat Index (°F) altimeter (in) sea level (mb) 1 hr 3 hr 6 hr
6 hour
Temperature (ºF) Pressure Precipitation (in)